createdAt,value
2022-12-11T00:00:51.991Z,107.67
2022-12-11T00:03:19.196Z,169.90
2022-12-11T00:05:46.271Z,106.68
2022-12-11T00:08:14.028Z,110.03
2022-12-11T00:10:48.415Z,105.75
2022-12-11T00:13:15.349Z,127.70
2022-12-11T00:15:42.101Z,129.68
2022-12-11T00:18:14.001Z,136.23
2022-12-11T00:20:41.503Z,121.32
2022-12-11T00:23:08.383Z,100.47
2022-12-11T00:25:35.505Z,100.07
2022-12-11T00:28:06.306Z,93.95
2022-12-11T00:30:33.176Z,106.82
2022-12-11T00:33:01.714Z,92.90
2022-12-11T00:35:29.265Z,107.70
2022-12-11T00:37:55.930Z,95.03
2022-12-11T00:40:22.704Z,86.55
2022-12-11T00:42:51.447Z,91.13
2022-12-11T00:45:21.191Z,93.10
2022-12-11T00:47:47.931Z,91.28
2022-12-11T00:50:14.602Z,89.33
2022-12-11T00:52:41.507Z,110.35
2022-12-11T00:55:09.721Z,108.35
2022-12-11T01:03:21.623Z,112.20
2022-12-11T01:11:27.700Z,110.40
2022-12-11T01:13:55.191Z,104.68
2022-12-11T01:16:23.468Z,116.27
2022-12-11T01:18:50.620Z,124.53
2022-12-11T01:21:22.766Z,151.48
2022-12-11T01:23:51.126Z,129.68
2022-12-11T01:26:19.012Z,236.40
2022-12-11T01:28:49.796Z,120.60
2022-12-11T01:31:18.342Z,125.35
2022-12-11T01:33:45.314Z,129.98
2022-12-11T01:36:16.657Z,208.63
2022-12-11T01:38:43.838Z,146.95
2022-12-11T01:41:11.400Z,169.30
2022-12-11T01:44:06.976Z,163.20
2022-12-11T01:46:35.961Z,169.20
2022-12-11T01:49:05.983Z,156.70
2022-12-11T01:51:35.962Z,171.88
2022-12-11T01:54:07.365Z,209.17
2022-12-11T01:56:35.841Z,141.77
2022-12-11T01:59:07.236Z,129.40
2022-12-11T02:01:44.591Z,214.45
2022-12-11T02:04:12.062Z,107.15
2022-12-11T02:06:41.717Z,318.57
2022-12-11T02:09:14.631Z,162.65
2022-12-11T02:11:50.293Z,101.03
2022-12-11T02:14:43.349Z,209.32
2022-12-11T02:17:21.858Z,121.40
2022-12-11T02:20:05.156Z,107.03
2022-12-11T02:22:40.851Z,96.30
2022-12-11T02:25:20.842Z,110.85
2022-12-11T02:28:14.698Z,87.43
2022-12-11T02:30:45.257Z,87.88
2022-12-11T02:33:13.701Z,97.37
2022-12-11T02:35:43.853Z,91.15
2022-12-11T02:38:19.682Z,90.90
2022-12-11T02:40:49.994Z,104.10
2022-12-11T02:43:18.537Z,87.25
2022-12-11T02:45:46.876Z,90.57
2022-12-11T02:48:15.522Z,83.35
2022-12-11T02:50:45.942Z,87.15
2022-12-11T02:53:16.029Z,85.13
2022-12-11T02:55:43.708Z,72.55
2022-12-11T02:58:23.565Z,91.30
2022-12-11T03:00:50.386Z,85.88
2022-12-11T03:03:17.083Z,70.35
2022-12-11T03:05:46.086Z,73.15
2022-12-11T03:08:18.451Z,79.25
2022-12-11T03:10:46.002Z,69.00
2022-12-11T03:13:16.107Z,73.75
2022-12-11T03:15:46.808Z,96.10
2022-12-11T03:18:26.691Z,77.20
2022-12-11T03:21:13.724Z,71.43
2022-12-11T03:23:54.212Z,69.90
2022-12-11T03:26:22.729Z,65.43
2022-12-11T03:29:02.484Z,69.60
2022-12-11T03:31:43.416Z,77.03
2022-12-11T03:34:19.628Z,60.75
2022-12-11T03:36:48.489Z,64.67
2022-12-11T03:39:27.191Z,65.90
2022-12-11T03:41:55.127Z,63.53
2022-12-11T03:44:24.031Z,61.88
2022-12-11T03:46:52.310Z,58.88
2022-12-11T03:49:32.254Z,61.07
2022-12-11T03:52:09.024Z,60.00
2022-12-11T03:54:38.390Z,60.78
2022-12-11T03:57:22.230Z,64.47
2022-12-11T03:59:52.042Z,56.42
2022-12-11T04:02:26.503Z,52.47
2022-12-11T04:04:53.421Z,50.80
2022-12-11T04:07:55.551Z,53.83
2022-12-11T04:10:26.019Z,54.88
2022-12-11T04:12:56.812Z,47.83
2022-12-11T04:15:25.570Z,59.03
2022-12-11T04:18:12.293Z,54.80
2022-12-11T04:21:00.566Z,55.88
2022-12-11T04:23:46.939Z,53.92
2022-12-11T04:26:33.046Z,43.90
2022-12-11T04:34:43.754Z,54.60
2022-12-11T04:37:13.580Z,51.03
2022-12-11T04:39:42.587Z,45.35
2022-12-11T04:47:48.353Z,46.42
2022-12-11T04:53:22.624Z,47.90
2022-12-11T04:55:53.165Z,46.53
2022-12-11T05:01:43.747Z,41.92
2022-12-11T05:17:35.518Z,44.22
2022-12-11T05:20:04.762Z,39.25
2022-12-11T05:22:45.890Z,40.40
2022-12-11T05:25:24.560Z,43.77
2022-12-11T05:30:47.376Z,38.08
2022-12-11T05:33:20.402Z,42.38
2022-12-11T05:39:06.537Z,46.37
2022-12-11T05:44:27.022Z,43.42
2022-12-11T05:46:53.648Z,42.38
2022-12-11T05:49:24.641Z,43.15
2022-12-11T05:51:53.979Z,39.33
2022-12-11T05:54:20.577Z,40.22
2022-12-11T05:56:50.199Z,37.58
2022-12-11T05:59:18.858Z,38.20
2022-12-11T06:01:45.857Z,38.58
2022-12-11T06:04:13.583Z,36.83
2022-12-11T06:06:40.492Z,37.47
2022-12-11T06:09:07.597Z,36.25
2022-12-11T06:11:35.494Z,38.00
2022-12-11T06:14:03.426Z,37.92
2022-12-11T06:16:30.185Z,36.93
2022-12-11T06:18:58.342Z,40.45
2022-12-11T06:21:28.001Z,40.33
2022-12-11T06:23:56.509Z,41.03
2022-12-11T06:26:23.995Z,35.03
2022-12-11T06:28:50.796Z,35.27
2022-12-11T06:31:18.426Z,40.03
2022-12-11T06:33:45.427Z,37.45
2022-12-11T06:36:15.682Z,40.05
2022-12-11T06:38:42.531Z,39.45
2022-12-11T06:41:09.550Z,39.67
2022-12-11T06:43:38.254Z,40.20
2022-12-11T06:46:06.275Z,38.45
2022-12-11T06:48:33.264Z,42.75
2022-12-11T06:50:59.989Z,41.63
2022-12-11T06:53:26.569Z,43.13
2022-12-11T06:55:53.178Z,39.03
2022-12-11T06:58:19.814Z,38.83
2022-12-11T07:00:46.493Z,39.03
2022-12-11T07:03:13.726Z,40.78
2022-12-11T07:05:40.442Z,40.33
2022-12-11T07:08:07.385Z,39.80
2022-12-11T07:10:34.212Z,42.83
2022-12-11T07:13:00.778Z,39.92
2022-12-11T07:15:27.478Z,43.67
2022-12-11T07:17:54.177Z,41.83
2022-12-11T07:20:21.176Z,43.22
2022-12-11T07:22:54.272Z,40.22
2022-12-11T07:25:21.254Z,44.22
2022-12-11T07:27:48.014Z,42.88
2022-12-11T07:30:15.551Z,44.10
2022-12-11T07:32:42.340Z,42.28
2022-12-11T07:35:10.575Z,45.60
2022-12-11T07:37:40.574Z,44.30
2022-12-11T07:40:08.099Z,41.30
2022-12-11T07:42:34.669Z,44.27
2022-12-11T07:45:01.274Z,46.17
2022-12-11T07:47:27.908Z,45.50
2022-12-11T07:49:54.523Z,44.13
2022-12-11T07:52:21.100Z,44.90
2022-12-11T07:54:47.773Z,43.90
2022-12-11T07:57:14.667Z,45.88
2022-12-11T07:59:41.763Z,43.63
2022-12-11T08:02:11.817Z,41.63
2022-12-11T08:04:38.770Z,43.50
2022-12-11T08:07:05.385Z,43.07
2022-12-11T08:09:32.021Z,43.70
2022-12-11T08:11:58.642Z,44.53
2022-12-11T08:14:25.318Z,43.15
2022-12-11T08:16:52.008Z,46.95
2022-12-11T08:19:19.105Z,42.97
2022-12-11T08:21:45.777Z,46.42
2022-12-11T08:24:12.417Z,41.78
2022-12-11T08:26:39.599Z,44.78
2022-12-11T08:29:06.251Z,44.83
2022-12-11T08:31:33.164Z,40.60
2022-12-11T08:34:00.203Z,41.45
2022-12-11T08:36:26.925Z,44.15
2022-12-11T08:38:55.469Z,39.65
2022-12-11T08:41:28.210Z,44.30
2022-12-11T08:43:56.356Z,39.20
2022-12-11T08:46:25.644Z,42.20
2022-12-11T08:48:52.957Z,46.38
2022-12-11T08:51:22.761Z,42.67
2022-12-11T08:53:50.999Z,40.55
2022-12-11T08:56:20.516Z,44.30
2022-12-11T08:58:48.228Z,39.25
2022-12-11T09:01:18.223Z,40.13
2022-12-11T09:03:45.155Z,40.60
2022-12-11T09:06:15.069Z,45.78
2022-12-11T09:08:48.695Z,44.90
2022-12-11T09:11:24.304Z,40.05
2022-12-11T09:13:51.565Z,39.78
2022-12-11T09:16:20.338Z,38.65
2022-12-11T09:18:48.351Z,38.80
2022-12-11T09:21:17.449Z,43.57
2022-12-11T09:23:44.692Z,38.42
2022-12-11T09:26:13.854Z,41.55
2022-12-11T09:28:46.193Z,44.20
2022-12-11T09:31:16.649Z,39.03
2022-12-11T09:33:43.854Z,42.50
2022-12-11T09:36:11.908Z,39.97
2022-12-11T09:38:38.946Z,35.85
2022-12-11T09:41:21.383Z,41.33
2022-12-11T09:43:59.031Z,40.40
2022-12-11T09:46:33.575Z,39.97
2022-12-11T09:49:03.720Z,38.85
2022-12-11T09:51:36.134Z,36.55
2022-12-11T09:54:04.476Z,35.70
2022-12-11T09:56:41.705Z,38.72
2022-12-11T09:59:23.077Z,38.40
2022-12-11T10:02:14.474Z,36.70
2022-12-11T10:04:55.572Z,35.70
2022-12-11T10:07:26.250Z,36.63
2022-12-11T10:10:20.526Z,36.60
2022-12-11T10:13:28.987Z,37.67
2022-12-11T10:16:31.933Z,31.67
2022-12-11T10:18:59.799Z,38.30
2022-12-11T10:21:26.989Z,38.38
2022-12-11T10:24:01.001Z,36.10
2022-12-11T10:26:29.463Z,33.93
2022-12-11T10:29:00.814Z,33.72
2022-12-11T10:31:53.454Z,33.83
2022-12-11T10:34:34.598Z,33.92
2022-12-11T10:37:01.655Z,35.70
2022-12-11T10:39:28.649Z,33.63
2022-12-11T10:41:56.619Z,35.63
2022-12-11T10:44:31.358Z,32.10
2022-12-11T10:47:09.945Z,36.72
2022-12-11T10:49:38.605Z,32.10
2022-12-11T10:52:19.709Z,35.00
2022-12-11T10:54:54.230Z,36.30
2022-12-11T10:57:31.104Z,36.45
2022-12-11T10:59:59.173Z,34.97
2022-12-11T11:02:32.851Z,32.88
2022-12-11T11:05:01.440Z,34.20
2022-12-11T11:07:33.153Z,34.70
2022-12-11T11:10:13.921Z,34.05
2022-12-11T11:12:45.003Z,34.95
2022-12-11T11:15:26.557Z,37.10
2022-12-11T11:17:56.298Z,31.17
2022-12-11T11:20:29.159Z,35.42
2022-12-11T11:23:14.640Z,33.45
2022-12-11T11:25:50.864Z,32.70
2022-12-11T11:28:25.729Z,30.90
2022-12-11T11:31:09.709Z,33.33
2022-12-11T11:33:44.859Z,30.77
2022-12-11T11:36:24.331Z,33.58
2022-12-11T11:39:17.757Z,36.40
2022-12-11T11:42:14.906Z,31.63
2022-12-11T11:44:50.939Z,34.27
2022-12-11T11:47:24.258Z,27.05
2022-12-11T11:50:08.447Z,31.92
2022-12-11T11:52:45.290Z,29.30
2022-12-11T11:55:43.937Z,30.63
2022-12-11T11:58:19.278Z,30.00
2022-12-11T12:00:46.118Z,28.08
2022-12-11T12:03:16.394Z,30.80
2022-12-11T12:05:49.980Z,30.20
2022-12-11T12:08:40.789Z,30.80
2022-12-11T12:11:13.386Z,27.77
2022-12-11T12:14:28.799Z,30.65
2022-12-11T12:17:09.089Z,29.85
2022-12-11T12:20:10.936Z,26.25
2022-12-11T12:22:45.114Z,28.30
2022-12-11T12:25:32.922Z,28.50
2022-12-11T12:28:30.667Z,30.70
2022-12-11T12:31:21.909Z,30.95
2022-12-11T12:34:24.014Z,25.67
2022-12-11T12:37:21.773Z,26.15
2022-12-11T12:40:00.059Z,24.67
2022-12-11T12:42:47.926Z,29.73
2022-12-11T12:45:41.143Z,30.80
2022-12-11T12:48:09.718Z,24.75
2022-12-11T12:50:44.673Z,27.80
2022-12-11T12:53:19.827Z,27.73
2022-12-11T12:55:48.121Z,27.45
2022-12-11T12:58:29.220Z,30.75
2022-12-11T13:01:08.648Z,31.55
2022-12-11T13:03:57.641Z,31.13
2022-12-11T13:06:29.500Z,33.57
2022-12-11T13:08:56.409Z,33.78
2022-12-11T13:11:33.570Z,32.08
2022-12-11T13:14:21.698Z,28.67
2022-12-11T13:16:50.634Z,30.95
2022-12-11T13:19:23.420Z,29.57
2022-12-11T13:22:13.186Z,31.75
2022-12-11T13:24:51.635Z,35.83
2022-12-11T13:27:34.576Z,33.63
2022-12-11T13:30:28.314Z,34.40
2022-12-11T13:33:03.660Z,35.90
2022-12-11T13:35:32.335Z,31.70
2022-12-11T13:38:06.972Z,34.03
2022-12-11T13:40:41.934Z,33.80
2022-12-11T13:43:24.596Z,35.65
2022-12-11T13:45:57.203Z,35.53
2022-12-11T13:48:34.898Z,32.03
2022-12-11T13:51:01.814Z,39.60
2022-12-11T13:53:29.338Z,35.53
2022-12-11T13:56:18.920Z,35.30
2022-12-11T13:58:45.513Z,30.50
2022-12-11T14:01:27.524Z,38.95
2022-12-11T14:04:08.495Z,37.33
2022-12-11T14:06:36.890Z,36.72
2022-12-11T14:09:05.346Z,35.67
2022-12-11T14:11:37.478Z,36.43
2022-12-11T14:14:08.498Z,36.70
2022-12-11T14:16:35.341Z,35.65
2022-12-11T14:19:09.702Z,38.35
2022-12-11T14:21:37.156Z,36.08
2022-12-11T14:24:06.400Z,36.97
2022-12-11T14:26:35.153Z,35.67
2022-12-11T14:29:03.165Z,35.80
2022-12-11T14:31:44.281Z,40.13
2022-12-11T14:34:18.061Z,42.42
2022-12-11T14:36:47.007Z,40.03
2022-12-11T14:39:31.135Z,41.72
2022-12-11T14:42:05.594Z,37.88
2022-12-11T14:44:48.114Z,36.08
2022-12-11T14:47:26.037Z,34.08
2022-12-11T14:50:02.687Z,38.07
2022-12-11T14:52:35.676Z,40.25
2022-12-11T14:55:25.141Z,37.83
2022-12-11T14:57:57.246Z,38.65
2022-12-11T15:00:35.921Z,39.38
2022-12-11T15:03:19.506Z,37.73
2022-12-11T15:05:57.210Z,40.97
2022-12-11T15:08:31.189Z,39.92
2022-12-11T15:11:05.493Z,38.38
2022-12-11T15:13:33.432Z,37.13
2022-12-11T15:16:00.584Z,40.43
2022-12-11T15:18:33.595Z,40.17
2022-12-11T15:21:06.826Z,43.55
2022-12-11T15:23:38.346Z,39.80
2022-12-11T15:26:05.214Z,37.92
2022-12-11T15:28:35.240Z,41.70
2022-12-11T15:31:07.971Z,35.53
2022-12-11T15:33:46.757Z,41.38
2022-12-11T15:36:26.569Z,42.22
2022-12-11T15:38:53.283Z,36.38
2022-12-11T15:41:21.397Z,36.40
2022-12-11T15:43:48.097Z,39.17
2022-12-11T15:46:14.923Z,39.88
2022-12-11T15:48:41.650Z,39.78
2022-12-11T15:51:09.919Z,42.40
2022-12-11T15:53:36.995Z,44.47
2022-12-11T15:56:03.926Z,43.17
2022-12-11T15:58:30.755Z,44.78
2022-12-11T16:00:57.831Z,37.65
2022-12-11T16:03:24.873Z,37.60
2022-12-11T16:05:52.869Z,39.27
2022-12-11T16:08:22.210Z,37.33
2022-12-11T16:10:51.171Z,39.58
2022-12-11T16:13:17.785Z,40.35
2022-12-11T16:15:46.998Z,38.78
2022-12-11T16:18:22.341Z,39.93
2022-12-11T16:20:49.870Z,43.55
2022-12-11T16:23:17.208Z,36.10
2022-12-11T16:25:45.423Z,45.08
2022-12-11T16:28:14.049Z,38.00
2022-12-11T16:30:41.144Z,42.17
2022-12-11T16:33:12.402Z,36.85
2022-12-11T16:35:41.260Z,39.95
2022-12-11T16:38:08.237Z,34.95
2022-12-11T16:40:34.905Z,38.22
2022-12-11T16:43:02.662Z,41.47
2022-12-11T16:45:29.296Z,35.17
2022-12-11T16:47:55.917Z,36.58
2022-12-11T16:50:23.518Z,39.55
2022-12-11T16:52:50.170Z,40.75
2022-12-11T16:55:20.936Z,43.10
2022-12-11T16:57:47.562Z,35.03
2022-12-11T17:00:14.500Z,38.08
2022-12-11T17:02:41.187Z,36.83
2022-12-11T17:05:08.419Z,40.63
2022-12-11T17:07:35.352Z,36.90
2022-12-11T17:10:03.183Z,39.15
2022-12-11T17:12:30.313Z,35.25
2022-12-11T17:14:57.093Z,36.13
2022-12-11T17:17:24.125Z,33.22
2022-12-11T17:19:50.739Z,36.63
2022-12-11T17:22:17.426Z,40.45
2022-12-11T17:24:44.054Z,37.20
2022-12-11T17:27:10.810Z,34.95
2022-12-11T17:29:37.774Z,39.10
2022-12-11T17:32:04.652Z,35.30
2022-12-11T17:34:37.633Z,37.35
2022-12-11T17:37:05.424Z,38.53
2022-12-11T17:39:32.165Z,38.95
2022-12-11T17:41:58.991Z,40.30
2022-12-11T17:44:26.621Z,36.83
2022-12-11T17:46:53.540Z,37.13
2022-12-11T17:49:20.249Z,35.67
2022-12-11T17:51:47.753Z,38.03
2022-12-11T17:54:14.429Z,35.25
2022-12-11T17:56:41.282Z,41.57
2022-12-11T17:59:07.889Z,36.55
2022-12-11T18:01:34.695Z,31.60
2022-12-11T18:04:01.833Z,35.35
2022-12-11T18:06:29.357Z,34.40
2022-12-11T18:08:56.818Z,31.63
2022-12-11T18:11:23.926Z,34.35
2022-12-11T18:13:52.523Z,35.22
2022-12-11T18:16:29.357Z,32.53
2022-12-11T18:18:56.500Z,32.80
2022-12-11T18:21:27.695Z,32.57
2022-12-11T18:23:54.794Z,34.13
2022-12-11T18:26:21.864Z,30.60
2022-12-11T18:28:50.050Z,32.83
2022-12-11T18:31:18.135Z,31.58
2022-12-11T18:33:45.640Z,34.53
2022-12-11T18:36:14.544Z,32.85
2022-12-11T18:38:42.154Z,28.85
2022-12-11T18:41:11.084Z,29.77
2022-12-11T18:43:37.723Z,32.70
2022-12-11T18:46:09.592Z,29.07
2022-12-11T18:48:36.447Z,30.38
2022-12-11T18:51:07.404Z,30.27
2022-12-11T18:53:34.757Z,29.88
2022-12-11T18:56:10.029Z,32.75
2022-12-11T18:58:36.836Z,27.93
2022-12-11T19:01:12.181Z,29.50
2022-12-11T19:03:38.874Z,32.55
2022-12-11T19:06:08.371Z,28.30
2022-12-11T19:08:35.163Z,28.85
2022-12-11T19:11:01.955Z,27.17
2022-12-11T19:13:28.597Z,29.50
2022-12-11T19:15:55.375Z,25.63
2022-12-11T19:18:22.049Z,31.50
2022-12-11T19:20:50.916Z,26.73
2022-12-11T19:23:20.865Z,28.13
2022-12-11T19:25:48.339Z,30.65
2022-12-11T19:28:16.172Z,29.52
2022-12-11T19:30:44.843Z,28.00
2022-12-11T19:33:11.934Z,29.33
2022-12-11T19:35:38.693Z,29.13
2022-12-11T19:38:05.311Z,29.10
2022-12-11T19:40:31.896Z,29.55
2022-12-11T19:42:58.527Z,27.45
2022-12-11T19:45:25.190Z,29.77
2022-12-11T19:47:51.849Z,27.23
2022-12-11T19:50:18.522Z,27.90
2022-12-11T19:52:46.542Z,31.42
2022-12-11T19:55:14.883Z,28.77
2022-12-11T19:57:41.583Z,30.08
2022-12-11T20:00:08.632Z,25.00
2022-12-11T20:02:35.354Z,26.80
2022-12-11T20:05:02.006Z,27.83
2022-12-11T20:07:30.780Z,27.85
2022-12-11T20:09:57.573Z,27.67
2022-12-11T20:12:24.424Z,28.03
2022-12-11T20:14:51.101Z,25.50
2022-12-11T20:17:17.722Z,29.42
2022-12-11T20:19:44.460Z,28.75
2022-12-11T20:22:11.523Z,25.58
2022-12-11T20:24:38.206Z,27.93
2022-12-11T20:27:05.013Z,30.35
2022-12-11T20:29:32.129Z,28.27
2022-12-11T20:32:00.257Z,27.92
2022-12-11T20:34:27.647Z,28.35
2022-12-11T20:36:54.544Z,27.23
2022-12-11T20:39:21.281Z,27.98
2022-12-11T20:41:47.919Z,28.45
2022-12-11T20:44:15.013Z,29.35
2022-12-11T20:46:41.645Z,26.00
2022-12-11T20:49:12.935Z,25.63
2022-12-11T20:51:40.245Z,28.58
2022-12-11T20:54:07.254Z,28.38
2022-12-11T20:56:33.880Z,29.42
2022-12-11T20:59:00.886Z,24.63
2022-12-11T21:01:31.030Z,25.10
2022-12-11T21:03:58.509Z,24.80
2022-12-11T21:06:26.708Z,29.38
2022-12-11T21:08:54.022Z,27.73
2022-12-11T21:11:20.759Z,26.30
2022-12-11T21:13:47.352Z,24.80
2022-12-11T21:16:14.193Z,24.75
2022-12-11T21:18:41.588Z,29.15
2022-12-11T21:21:08.176Z,25.77
2022-12-11T21:23:35.182Z,27.23
2022-12-11T21:26:01.829Z,26.10
2022-12-11T21:28:34.984Z,25.35
2022-12-11T21:31:07.322Z,24.45
2022-12-11T21:33:34.517Z,26.92
2022-12-11T21:36:02.000Z,26.08
2022-12-11T21:38:29.306Z,25.50
2022-12-11T21:40:59.081Z,26.55
2022-12-11T21:43:25.734Z,28.83
2022-12-11T21:46:00.858Z,23.55
2022-12-11T21:48:27.892Z,25.08
2022-12-11T21:50:54.585Z,24.93
2022-12-11T21:53:21.175Z,25.13
2022-12-11T21:55:48.102Z,25.52
2022-12-11T21:58:14.721Z,26.05
2022-12-11T22:00:41.451Z,24.50
2022-12-11T22:03:08.079Z,26.17
2022-12-11T22:05:34.745Z,22.98
2022-12-11T22:08:01.425Z,26.58
2022-12-11T22:10:28.986Z,27.70
2022-12-11T22:12:56.106Z,25.05
2022-12-11T22:15:22.838Z,28.23
2022-12-11T22:17:49.477Z,28.55
2022-12-11T22:20:16.108Z,24.60
2022-12-11T22:22:42.826Z,26.30
2022-12-11T22:25:10.047Z,25.77
2022-12-11T22:27:37.105Z,27.67
2022-12-11T22:30:04.445Z,25.88
2022-12-11T22:32:31.074Z,25.75
2022-12-11T22:34:57.811Z,28.55
2022-12-11T22:37:25.118Z,27.88
2022-12-11T22:39:51.814Z,28.40
2022-12-11T22:42:18.465Z,27.83
2022-12-11T22:44:45.110Z,27.77
2022-12-11T22:47:12.193Z,25.92
2022-12-11T22:49:38.921Z,26.55
2022-12-11T22:52:05.597Z,25.40
2022-12-11T22:54:32.634Z,26.55
2022-12-11T22:56:59.221Z,23.58
2022-12-11T22:59:25.814Z,27.48
2022-12-11T23:01:52.430Z,23.80
2022-12-11T23:04:19.021Z,23.30
2022-12-11T23:06:45.619Z,28.05
2022-12-11T23:09:12.339Z,26.98
2022-12-11T23:11:39.932Z,28.02
2022-12-11T23:14:11.086Z,26.08
2022-12-11T23:16:37.778Z,25.77
2022-12-11T23:19:04.743Z,24.85
2022-12-11T23:21:31.505Z,26.63
2022-12-11T23:23:58.650Z,26.30
2022-12-11T23:26:28.134Z,29.35
2022-12-11T23:28:56.330Z,27.10
2022-12-11T23:31:23.791Z,25.60
2022-12-11T23:33:50.926Z,26.65
2022-12-11T23:36:18.345Z,26.15
2022-12-11T23:38:49.547Z,24.25
2022-12-11T23:41:19.540Z,32.83
2022-12-11T23:43:46.253Z,27.77
2022-12-11T23:46:16.157Z,29.65
2022-12-11T23:48:43.081Z,26.13
2022-12-11T23:51:12.970Z,31.25
2022-12-11T23:53:39.839Z,28.90
2022-12-11T23:56:10.031Z,26.42
2022-12-11T23:58:37.910Z,27.27
